createdAt,value
2018-08-18T00:02:09.513Z,3.83
2018-08-18T00:04:37.045Z,3.60
2018-08-18T00:07:04.606Z,4.60
2018-08-18T00:09:32.132Z,4.27
2018-08-18T00:11:59.693Z,4.30
2018-08-18T00:14:27.231Z,4.20
2018-08-18T00:16:54.789Z,4.47
2018-08-18T00:19:22.345Z,4.30
2018-08-18T00:21:49.873Z,4.43
2018-08-18T00:24:17.426Z,4.30
2018-08-18T00:26:44.981Z,4.27
2018-08-18T00:29:12.558Z,4.60
2018-08-18T00:31:40.095Z,4.50
2018-08-18T00:34:08.613Z,4.30
2018-08-18T00:36:36.186Z,4.80
2018-08-18T00:39:03.717Z,5.80
2018-08-18T00:41:31.277Z,5.10
2018-08-18T00:43:58.829Z,5.53
2018-08-18T00:46:26.362Z,4.57
2018-08-18T00:48:53.915Z,5.20
2018-08-18T00:51:21.541Z,4.73
2018-08-18T00:53:49.096Z,5.30
2018-08-18T00:56:19.378Z,5.50
2018-08-18T00:58:46.946Z,5.00
2018-08-18T01:01:14.504Z,5.20
2018-08-18T01:03:42.057Z,5.53
2018-08-18T01:06:09.638Z,5.47
2018-08-18T01:08:37.203Z,5.63
2018-08-18T01:11:05.608Z,5.40
2018-08-18T01:13:33.157Z,5.20
2018-08-18T01:16:00.699Z,5.10
2018-08-18T01:18:29.224Z,5.67
2018-08-18T01:20:56.854Z,5.60
2018-08-18T01:23:24.411Z,4.90
2018-08-18T01:25:52.974Z,5.63
2018-08-18T01:28:20.536Z,6.17
2018-08-18T01:30:48.081Z,5.30
2018-08-18T01:33:15.628Z,6.27
2018-08-18T01:35:44.165Z,6.93
2018-08-18T01:38:11.702Z,5.50
2018-08-18T01:40:39.265Z,5.80
2018-08-18T01:43:06.801Z,5.40
2018-08-18T01:45:35.101Z,5.50
2018-08-18T01:48:02.701Z,5.27
2018-08-18T01:50:31.204Z,5.62
2018-08-18T01:52:58.761Z,6.00
2018-08-18T01:55:27.061Z,5.10
2018-08-18T01:57:54.612Z,5.57
2018-08-18T02:00:22.173Z,5.67
2018-08-18T02:02:49.727Z,5.70
2018-08-18T02:05:17.257Z,6.40
2018-08-18T02:07:45.589Z,5.90
2018-08-18T02:10:13.129Z,5.80
2018-08-18T02:12:40.685Z,6.57
2018-08-18T02:15:08.730Z,6.28
2018-08-18T02:17:36.301Z,6.80
2018-08-18T02:20:03.911Z,6.50
2018-08-18T02:22:32.366Z,6.60
2018-08-18T02:24:59.902Z,6.20
2018-08-18T02:27:27.472Z,6.50
2018-08-18T02:29:55.001Z,6.10
2018-08-18T02:32:22.557Z,5.77
2018-08-18T02:34:50.109Z,5.50
2018-08-18T02:37:18.428Z,6.20
2018-08-18T02:39:46.920Z,6.30
2018-08-18T02:42:14.486Z,6.50
2018-08-18T02:44:42.018Z,7.17
2018-08-18T02:47:09.554Z,7.10
2018-08-18T02:49:37.114Z,6.03
2018-08-18T02:52:04.647Z,6.20
2018-08-18T02:54:32.217Z,6.80
2018-08-18T02:56:59.757Z,5.87
2018-08-18T02:59:27.312Z,6.23
2018-08-18T03:01:54.848Z,6.57
2018-08-18T03:04:22.397Z,6.80
2018-08-18T03:06:49.958Z,7.53
2018-08-18T03:09:17.514Z,6.20
2018-08-18T03:11:46.101Z,6.33
2018-08-18T03:14:13.661Z,7.00
2018-08-18T03:16:41.206Z,7.27
2018-08-18T03:19:08.783Z,7.60
2018-08-18T03:21:36.372Z,7.80
2018-08-18T03:24:05.896Z,7.20
2018-08-18T03:26:33.446Z,6.87
2018-08-18T03:29:01.089Z,7.23
2018-08-18T03:31:28.630Z,6.20
2018-08-18T03:33:58.914Z,6.40
2018-08-18T03:36:26.480Z,6.80
2018-08-18T03:38:54.069Z,6.30
2018-08-18T03:41:22.377Z,6.50
2018-08-18T03:43:49.941Z,6.60
2018-08-18T03:46:18.463Z,7.40
2018-08-18T03:48:46.035Z,7.40
2018-08-18T03:51:14.345Z,6.67
2018-08-18T03:53:41.912Z,6.70
2018-08-18T03:56:09.467Z,7.50
2018-08-18T03:58:38.994Z,7.33
2018-08-18T04:01:06.526Z,7.80
2018-08-18T04:03:34.081Z,7.50
2018-08-18T04:06:01.646Z,7.77
2018-08-18T04:08:29.177Z,7.37
2018-08-18T04:10:56.742Z,7.20
2018-08-18T04:13:24.269Z,7.30
2018-08-18T04:15:52.613Z,7.50
2018-08-18T04:18:20.145Z,8.07
2018-08-18T04:20:47.706Z,7.80
2018-08-18T04:23:15.242Z,8.10
2018-08-18T04:25:42.806Z,8.20
2018-08-18T04:28:10.365Z,7.77
2018-08-18T04:30:37.904Z,8.27
2018-08-18T04:33:05.480Z,8.17
2018-08-18T04:35:33.045Z,7.80
2018-08-18T04:38:00.572Z,7.93
2018-08-18T04:40:29.100Z,7.43
2018-08-18T04:42:56.631Z,7.40
2018-08-18T04:45:24.198Z,7.73
2018-08-18T04:47:51.771Z,7.83
2018-08-18T04:50:19.365Z,7.57
2018-08-18T04:52:47.699Z,7.87
2018-08-18T04:55:15.237Z,7.00
2018-08-18T04:57:42.822Z,7.70
2018-08-18T05:00:10.390Z,8.10
2018-08-18T05:02:37.953Z,8.30
2018-08-18T05:05:05.526Z,7.47
2018-08-18T05:07:33.093Z,7.60
2018-08-18T05:10:00.668Z,7.60
2018-08-18T05:12:28.217Z,7.20
2018-08-18T05:14:55.783Z,7.30
2018-08-18T05:17:23.361Z,7.60
2018-08-18T05:19:50.947Z,8.00
2018-08-18T05:22:18.491Z,6.93
2018-08-18T05:24:46.060Z,7.97
2018-08-18T05:27:13.630Z,7.90
2018-08-18T05:29:41.193Z,8.60
2018-08-18T05:32:08.777Z,8.80
2018-08-18T05:34:36.323Z,8.00
2018-08-18T05:37:04.657Z,7.80
2018-08-18T05:39:32.197Z,9.40
2018-08-18T05:41:59.782Z,8.60
2018-08-18T05:44:27.331Z,8.60
2018-08-18T05:46:54.893Z,8.43
2018-08-18T05:49:22.473Z,9.70
2018-08-18T05:51:50.043Z,9.83
2018-08-18T05:54:17.634Z,10.13
2018-08-18T05:56:45.192Z,10.90
2018-08-18T05:59:12.764Z,9.17
2018-08-18T06:01:41.297Z,7.90
2018-08-18T06:04:08.849Z,8.40
2018-08-18T06:06:37.150Z,7.80
2018-08-18T06:09:04.715Z,7.70
2018-08-18T06:11:32.270Z,8.00
2018-08-18T06:13:59.829Z,7.97
2018-08-18T06:16:27.370Z,8.60
2018-08-18T06:18:54.955Z,8.20
2018-08-18T06:21:22.499Z,7.93
2018-08-18T06:23:50.074Z,8.47
2018-08-18T06:26:17.616Z,8.37
2018-08-18T06:28:45.178Z,8.23
2018-08-18T06:31:12.742Z,8.17
2018-08-18T06:33:40.329Z,11.07
2018-08-18T06:36:07.884Z,7.90
2018-08-18T06:38:35.429Z,8.80
2018-08-18T06:41:03.038Z,8.13
2018-08-18T06:43:30.582Z,9.17
2018-08-18T06:45:59.190Z,8.17
2018-08-18T06:48:26.766Z,7.80
2018-08-18T06:50:54.311Z,8.27
2018-08-18T06:53:21.881Z,8.87
2018-08-18T06:55:49.456Z,8.60
2018-08-18T06:58:17.042Z,8.70
2018-08-18T07:00:44.601Z,8.60
2018-08-18T07:03:12.186Z,9.00
2018-08-18T07:05:39.757Z,8.47
2018-08-18T07:08:07.325Z,8.50
2018-08-18T07:10:34.868Z,8.60
2018-08-18T07:13:03.398Z,9.30
2018-08-18T07:15:30.942Z,9.63
2018-08-18T07:17:58.498Z,9.67
2018-08-18T07:20:26.064Z,9.20
2018-08-18T07:22:55.598Z,9.50
2018-08-18T07:25:23.143Z,9.70
2018-08-18T07:27:50.733Z,10.00
2018-08-18T07:30:18.312Z,10.17
2018-08-18T07:32:45.871Z,9.93
2018-08-18T07:35:13.417Z,10.00
2018-08-18T07:37:41.005Z,9.80
2018-08-18T07:40:08.690Z,10.50
2018-08-18T07:42:37.206Z,11.40
2018-08-18T07:45:04.766Z,12.00
2018-08-18T07:47:33.309Z,14.80
2018-08-18T07:50:00.850Z,14.33
2018-08-18T07:52:28.429Z,14.10
2018-08-18T07:54:55.994Z,16.43
2018-08-18T07:57:23.548Z,15.87
2018-08-18T07:59:51.922Z,16.00
2018-08-18T08:02:20.263Z,14.60
2018-08-18T08:04:49.802Z,15.47
2018-08-18T08:07:17.357Z,15.93
2018-08-18T08:09:45.697Z,15.23
2018-08-18T08:12:13.248Z,16.03
2018-08-18T08:14:42.767Z,15.13
2018-08-18T08:17:10.333Z,14.40
2018-08-18T08:19:37.883Z,15.90
2018-08-18T08:22:05.457Z,14.50
2018-08-18T08:24:33.015Z,14.90
2018-08-18T08:27:00.605Z,15.20
2018-08-18T08:29:28.159Z,15.17
2018-08-18T08:31:55.737Z,16.17
2018-08-18T08:34:23.294Z,16.30
2018-08-18T08:36:50.946Z,16.63
2018-08-18T08:39:18.442Z,16.60
2018-08-18T08:41:46.011Z,14.90
2018-08-18T08:44:13.551Z,14.40
2018-08-18T08:46:41.156Z,13.93
2018-08-18T08:49:08.808Z,14.37
2018-08-18T08:51:36.299Z,13.10
2018-08-18T08:54:03.903Z,12.63
2018-08-18T08:56:31.474Z,12.83
2018-08-18T08:58:59.864Z,11.03
2018-08-18T09:01:27.417Z,10.93
2018-08-18T09:03:54.990Z,11.87
2018-08-18T09:06:22.537Z,10.77
2018-08-18T09:08:50.119Z,11.10
2018-08-18T09:11:17.666Z,12.33
2018-08-18T09:13:45.400Z,11.43
2018-08-18T09:16:13.708Z,10.57
2018-08-18T09:18:43.266Z,10.37
2018-08-18T09:21:10.848Z,11.50
2018-08-18T09:23:39.377Z,10.03
2018-08-18T09:26:07.737Z,11.00
2018-08-18T09:28:35.267Z,10.00
2018-08-18T09:31:02.853Z,11.33
2018-08-18T09:33:30.398Z,11.63
2018-08-18T09:35:57.968Z,11.17
2018-08-18T09:38:26.476Z,11.10
2018-08-18T09:40:54.053Z,10.23
2018-08-18T09:43:22.573Z,12.00
2018-08-18T09:45:50.113Z,11.50
2018-08-18T09:48:19.630Z,11.23
2018-08-18T09:50:47.178Z,12.80
2018-08-18T09:53:14.758Z,10.13
2018-08-18T09:55:42.293Z,10.00
2018-08-18T09:58:09.852Z,9.60
2018-08-18T10:00:37.432Z,10.30
2018-08-18T10:03:04.975Z,10.50
2018-08-18T10:05:32.738Z,8.40
2018-08-18T10:08:00.277Z,9.20
2018-08-18T10:10:27.833Z,9.20
2018-08-18T10:12:55.366Z,9.90
2018-08-18T10:15:25.744Z,10.70
2018-08-18T10:17:54.018Z,9.90
2018-08-18T10:20:21.566Z,10.20
2018-08-18T10:22:49.129Z,9.57
2018-08-18T10:25:16.689Z,9.90
2018-08-18T10:27:44.251Z,10.40
2018-08-18T10:30:11.815Z,10.30
2018-08-18T10:32:39.381Z,10.30
2018-08-18T10:35:07.842Z,9.63
2018-08-18T10:37:35.402Z,8.20
2018-08-18T10:40:03.935Z,8.80
2018-08-18T10:42:31.474Z,8.90
2018-08-18T10:44:59.043Z,8.30
2018-08-18T10:47:27.378Z,8.50
2018-08-18T10:50:07.641Z,8.60
2018-08-18T10:52:46.985Z,9.57
2018-08-18T10:55:15.495Z,8.20
2018-08-18T10:57:56.932Z,8.87
2018-08-18T11:00:24.478Z,8.63
2018-08-18T11:02:52.043Z,8.17
2018-08-18T11:05:21.561Z,7.20
2018-08-18T11:07:49.109Z,8.93
2018-08-18T11:10:16.698Z,7.13
2018-08-18T11:12:44.263Z,7.17
2018-08-18T11:15:11.813Z,6.50
2018-08-18T11:17:40.147Z,7.17
2018-08-18T11:20:07.724Z,7.40
2018-08-18T11:22:43.041Z,8.57
2018-08-18T11:25:10.612Z,8.17
2018-08-18T11:27:38.153Z,7.50
2018-08-18T11:30:05.728Z,7.70
2018-08-18T11:32:33.295Z,6.90
2018-08-18T11:35:00.921Z,7.00
2018-08-18T11:37:29.385Z,7.80
2018-08-18T11:39:56.949Z,7.53
2018-08-18T11:42:24.524Z,6.77
2018-08-18T11:44:52.095Z,6.90
2018-08-18T11:47:19.633Z,7.30
2018-08-18T11:49:47.194Z,7.20
2018-08-18T11:52:14.729Z,7.60
2018-08-18T11:54:42.283Z,7.50
2018-08-18T11:57:09.848Z,7.90
2018-08-18T11:59:37.401Z,7.90
2018-08-18T12:02:04.976Z,7.50
2018-08-18T12:04:32.527Z,7.70
2018-08-18T12:07:00.085Z,8.20
2018-08-18T12:09:27.621Z,7.50
2018-08-18T12:11:55.189Z,8.13
2018-08-18T12:14:22.721Z,7.30
2018-08-18T12:16:50.257Z,7.70
2018-08-18T12:19:19.747Z,7.80
2018-08-18T12:21:48.082Z,7.60
2018-08-18T12:24:15.696Z,8.10
2018-08-18T12:26:44.170Z,8.27
2018-08-18T12:29:11.720Z,7.60
2018-08-18T12:31:40.049Z,7.47
2018-08-18T12:34:07.605Z,6.70
2018-08-18T12:36:35.216Z,7.60
2018-08-18T12:39:02.772Z,7.17
2018-08-18T12:41:31.097Z,7.40
2018-08-18T12:43:58.649Z,7.60
2018-08-18T12:46:27.145Z,7.57
2018-08-18T12:48:54.705Z,7.27
2018-08-18T12:51:22.256Z,7.93
2018-08-18T12:53:49.818Z,6.97
2018-08-18T12:56:17.386Z,7.47
2018-08-18T12:58:45.005Z,7.07
2018-08-18T13:01:12.523Z,7.77
2018-08-18T13:03:41.008Z,7.43
2018-08-18T13:06:09.346Z,7.70
2018-08-18T13:08:36.873Z,7.83
2018-08-18T13:11:04.449Z,7.80
2018-08-18T13:13:32.753Z,7.53
2018-08-18T13:16:02.257Z,7.22
2018-08-18T13:18:29.815Z,7.17
2018-08-18T13:20:57.378Z,8.20
2018-08-18T13:23:24.914Z,8.33
2018-08-18T13:25:52.481Z,7.80
2018-08-18T13:28:20.041Z,7.77
2018-08-18T13:30:48.541Z,8.70
2018-08-18T13:33:16.913Z,8.30
2018-08-18T13:35:46.412Z,7.73
2018-08-18T13:38:13.964Z,7.57
2018-08-18T13:40:42.268Z,7.20
2018-08-18T13:43:09.833Z,8.13
2018-08-18T13:45:37.380Z,6.90
2018-08-18T13:48:04.938Z,7.30
2018-08-18T13:50:32.473Z,7.80
2018-08-18T13:53:00.809Z,7.70
2018-08-18T13:55:28.341Z,7.03
2018-08-18T13:57:55.904Z,8.13
2018-08-18T14:00:23.442Z,7.50
2018-08-18T14:02:51.000Z,7.30
2018-08-18T14:05:18.534Z,7.80
2018-08-18T14:07:46.093Z,7.30
2018-08-18T14:10:13.650Z,7.33
2018-08-18T14:12:41.990Z,7.17
2018-08-18T14:15:10.488Z,8.17
2018-08-18T14:17:38.059Z,7.37
2018-08-18T14:20:05.622Z,7.73
2018-08-18T14:22:34.889Z,7.43
2018-08-18T14:25:02.453Z,7.23
2018-08-18T14:27:29.985Z,7.10
2018-08-18T14:29:57.550Z,7.80
2018-08-18T14:32:25.109Z,7.40
2018-08-18T14:34:52.686Z,10.17
2018-08-18T14:37:21.180Z,8.03
2018-08-18T14:39:49.475Z,7.30
2018-08-18T14:42:17.048Z,7.40
2018-08-18T14:44:44.595Z,7.63
2018-08-18T14:47:12.166Z,7.03
2018-08-18T14:49:39.710Z,7.90
2018-08-18T14:52:07.247Z,7.10
2018-08-18T14:54:34.859Z,7.70
2018-08-18T14:57:02.424Z,8.13
2018-08-18T14:59:31.954Z,6.87
2018-08-18T15:02:00.258Z,7.40
2018-08-18T15:04:27.850Z,6.57
2018-08-18T15:06:55.386Z,7.23
2018-08-18T15:09:22.966Z,7.80
2018-08-18T15:11:50.496Z,7.63
2018-08-18T15:14:18.030Z,7.53
2018-08-18T15:16:45.591Z,7.23
2018-08-18T15:19:13.128Z,6.30
2018-08-18T15:21:40.703Z,6.90
2018-08-18T15:24:08.317Z,6.97
2018-08-18T15:26:35.856Z,7.17
2018-08-18T15:29:03.425Z,7.70
2018-08-18T15:31:30.994Z,6.30
2018-08-18T15:33:58.558Z,6.77
2018-08-18T15:36:29.644Z,6.70
2018-08-18T15:38:57.196Z,6.27
2018-08-18T15:41:25.747Z,6.27
2018-08-18T15:43:53.289Z,6.57
2018-08-18T15:46:21.829Z,6.03
2018-08-18T15:48:51.337Z,7.50
2018-08-18T15:51:19.860Z,7.17
2018-08-18T15:53:48.201Z,6.67
2018-08-18T15:56:15.767Z,6.80
2018-08-18T15:58:43.301Z,6.43
2018-08-18T16:01:12.809Z,9.50
2018-08-18T16:03:40.342Z,9.20
2018-08-18T16:06:08.893Z,7.40
2018-08-18T16:08:37.195Z,6.80
2018-08-18T16:11:04.728Z,6.43
2018-08-18T16:13:32.296Z,6.53
2018-08-18T16:15:59.837Z,7.20
2018-08-18T16:18:27.393Z,6.03
2018-08-18T16:20:55.701Z,7.33
2018-08-18T16:23:23.301Z,6.80
2018-08-18T16:25:50.832Z,6.80
2018-08-18T16:28:18.409Z,7.33
2018-08-18T16:30:46.897Z,7.07
2018-08-18T16:33:14.466Z,6.57
2018-08-18T16:35:42.005Z,8.70
2018-08-18T16:38:11.519Z,7.40
2018-08-18T16:40:39.078Z,6.67
2018-08-18T16:43:06.646Z,6.30
2018-08-18T16:45:34.177Z,6.80
2018-08-18T16:48:01.736Z,6.67
2018-08-18T16:50:29.296Z,7.23
2018-08-18T16:52:56.864Z,5.97
2018-08-18T16:55:24.407Z,9.77
2018-08-18T16:57:52.749Z,7.33
2018-08-18T17:00:20.280Z,7.30
2018-08-18T17:02:47.835Z,7.10
2018-08-18T17:05:15.401Z,7.10
2018-08-18T17:07:42.958Z,6.37
2018-08-18T17:10:10.513Z,6.33
2018-08-18T17:12:38.070Z,7.07
2018-08-18T17:15:05.626Z,6.33
2018-08-18T17:17:33.157Z,6.63
2018-08-18T17:20:00.739Z,7.50
2018-08-18T17:22:29.263Z,7.97
2018-08-18T17:24:56.846Z,9.53
2018-08-18T17:27:24.422Z,9.53
2018-08-18T17:29:51.995Z,9.13
2018-08-18T17:32:19.528Z,9.00
2018-08-18T17:34:47.095Z,6.63
2018-08-18T17:37:14.678Z,7.00
2018-08-18T17:39:42.210Z,6.43
2018-08-18T17:42:09.792Z,8.53
2018-08-18T17:44:38.301Z,8.30
2018-08-18T17:47:05.891Z,16.00
2018-08-18T17:49:34.333Z,8.50
2018-08-18T17:52:01.797Z,8.20
2018-08-18T17:54:29.366Z,8.03
2018-08-18T17:56:56.901Z,7.60
2018-08-18T17:59:24.470Z,7.13
2018-08-18T18:01:52.025Z,7.30
2018-08-18T18:04:20.592Z,7.90
2018-08-18T18:06:48.143Z,8.27
2018-08-18T18:09:15.706Z,7.83
2018-08-18T18:11:43.242Z,8.30
2018-08-18T18:14:10.805Z,8.20
2018-08-18T18:16:39.270Z,9.33
2018-08-18T18:19:06.838Z,9.73
2018-08-18T18:21:35.336Z,8.47
2018-08-18T18:24:02.893Z,9.07
2018-08-18T18:26:30.438Z,9.20
2018-08-18T18:28:58.010Z,8.83
2018-08-18T18:31:26.600Z,9.17
2018-08-18T18:33:54.140Z,9.10
2018-08-18T18:36:21.714Z,10.20
2018-08-18T18:38:49.256Z,10.03
2018-08-18T18:41:16.821Z,9.10
2018-08-18T18:43:44.352Z,8.70
2018-08-18T18:46:11.933Z,8.03
2018-08-18T18:48:41.442Z,8.40
2018-08-18T18:51:08.982Z,8.30
2018-08-18T18:53:36.547Z,8.80
2018-08-18T18:56:04.109Z,8.13
2018-08-18T18:58:31.669Z,8.30
2018-08-18T19:00:59.211Z,8.50
2018-08-18T19:03:26.765Z,8.17
2018-08-18T19:05:54.333Z,8.13
2018-08-18T19:08:21.893Z,7.70
2018-08-18T19:10:49.435Z,9.10
2018-08-18T19:13:18.938Z,7.60
2018-08-18T19:15:46.475Z,8.27
2018-08-18T19:18:14.058Z,8.80
2018-08-18T19:20:41.629Z,8.83
2018-08-18T19:23:09.208Z,8.30
2018-08-18T19:25:37.509Z,9.73
2018-08-18T19:28:05.073Z,8.77
2018-08-18T19:30:32.633Z,8.30
2018-08-18T19:33:00.228Z,8.10
2018-08-18T19:35:28.730Z,8.53
2018-08-18T19:37:56.304Z,8.37
2018-08-18T19:40:23.853Z,8.77
2018-08-18T19:42:52.183Z,8.20
2018-08-18T19:45:19.726Z,8.30
2018-08-18T19:47:47.298Z,9.13
2018-08-18T19:50:14.870Z,8.43
2018-08-18T19:52:42.483Z,9.57
2018-08-18T19:55:10.033Z,10.40
2018-08-18T19:57:37.609Z,8.50
2018-08-18T20:00:06.149Z,7.73
2018-08-18T20:02:33.700Z,7.47
2018-08-18T20:05:02.041Z,9.43
2018-08-18T20:07:29.582Z,8.10
2018-08-18T20:09:57.146Z,8.20
2018-08-18T20:12:24.730Z,8.50
2018-08-18T20:14:52.303Z,8.70
2018-08-18T20:17:19.849Z,8.40
2018-08-18T20:19:48.386Z,8.10
2018-08-18T20:22:17.913Z,8.90
2018-08-18T20:24:45.488Z,8.27
2018-08-18T20:27:13.018Z,8.20
2018-08-18T20:29:40.565Z,8.10
2018-08-18T20:32:08.109Z,7.67
2018-08-18T20:34:35.802Z,7.80
2018-08-18T20:37:03.295Z,8.50
2018-08-18T20:39:32.595Z,8.00
2018-08-18T20:42:01.872Z,9.57
2018-08-18T20:44:29.447Z,8.40
2018-08-18T20:46:57.027Z,10.00
2018-08-18T20:49:24.593Z,8.40
2018-08-18T20:51:52.136Z,8.07
2018-08-18T20:54:19.689Z,8.73
2018-08-18T20:56:48.251Z,8.40
2018-08-18T20:59:16.559Z,8.30
2018-08-18T21:01:46.067Z,7.87
2018-08-18T21:04:13.632Z,7.97
2018-08-18T21:06:41.178Z,8.43
2018-08-18T21:09:09.713Z,8.60
2018-08-18T21:11:37.276Z,9.00
2018-08-18T21:14:04.840Z,9.07
2018-08-18T21:16:32.370Z,8.60
2018-08-18T21:18:59.936Z,9.50
2018-08-18T21:21:27.478Z,9.70
2018-08-18T21:23:55.049Z,9.40
2018-08-18T21:26:22.636Z,9.50
2018-08-18T21:28:50.188Z,10.00
2018-08-18T21:31:18.498Z,9.33
2018-08-18T21:33:46.030Z,8.60
2018-08-18T21:36:13.598Z,9.45
2018-08-18T21:38:41.146Z,9.43
2018-08-18T21:41:08.709Z,9.70
2018-08-18T21:43:36.241Z,9.53
2018-08-18T21:46:04.561Z,9.07
2018-08-18T21:48:32.209Z,9.90
2018-08-18T21:50:59.764Z,9.93
2018-08-18T21:53:27.330Z,9.50
2018-08-18T21:55:54.871Z,9.70
2018-08-18T21:58:24.369Z,9.30
2018-08-18T22:00:51.907Z,9.63
2018-08-18T22:03:19.511Z,10.70
2018-08-18T22:05:47.996Z,10.63
2018-08-18T22:08:15.556Z,9.70
2018-08-18T22:10:43.101Z,10.13
2018-08-18T22:13:10.637Z,10.10
2018-08-18T22:15:38.196Z,10.00
2018-08-18T22:18:05.724Z,9.63
2018-08-18T22:20:33.293Z,10.57
2018-08-18T22:23:02.556Z,10.87
2018-08-18T22:25:30.128Z,10.43
2018-08-18T22:27:57.680Z,10.50
2018-08-18T22:30:25.244Z,10.83
2018-08-18T22:32:52.796Z,10.63
2018-08-18T22:35:20.361Z,10.30
2018-08-18T22:37:47.902Z,10.20
2018-08-18T22:40:15.465Z,10.93
2018-08-18T22:42:43.001Z,11.60
2018-08-18T22:45:17.277Z,10.80
2018-08-18T22:47:44.813Z,10.87
2018-08-18T22:50:13.114Z,11.27
2018-08-18T22:52:40.678Z,11.50
2018-08-18T22:55:08.517Z,11.20
2018-08-18T22:57:36.845Z,12.40
2018-08-18T23:00:04.398Z,11.60
2018-08-18T23:02:31.967Z,10.63
2018-08-18T23:04:59.511Z,11.00
2018-08-18T23:07:27.086Z,10.50
2018-08-18T23:09:54.623Z,10.17
2018-08-18T23:12:22.191Z,11.30
2018-08-18T23:14:49.725Z,10.70
2018-08-18T23:17:17.289Z,10.57
2018-08-18T23:19:44.862Z,11.60
2018-08-18T23:22:13.340Z,11.57
2018-08-18T23:24:40.909Z,12.50
2018-08-18T23:27:08.441Z,10.97
2018-08-18T23:29:36.004Z,11.80
2018-08-18T23:32:03.540Z,11.10
2018-08-18T23:34:32.038Z,11.63
2018-08-18T23:36:59.601Z,12.00
2018-08-18T23:39:27.134Z,11.27
2018-08-18T23:41:56.639Z,11.67
2018-08-18T23:44:24.200Z,11.83
2018-08-18T23:46:51.746Z,11.23
2018-08-18T23:49:19.315Z,11.67
2018-08-18T23:51:47.878Z,11.30
2018-08-18T23:54:15.443Z,11.43
2018-08-18T23:56:42.981Z,11.30
2018-08-18T23:59:10.540Z,11.43
